Lupton, Michigan
Current Conditions -  °F | °C
As of 11:33 AM on Thursday 29 Jan 2015 (Local Time) from KOSC Reporting Station
Light Snow Light Snow  
Wind Chill: -7°   Ceiling: 3700
Heat Index: -3°   Visibility: 1.5mi
Dew Point: -4°   Wind: 5mph
Humidity: 94%   Direction: 250°WSW
Pressure: 29.76"   Gusts: NA
Location:  44.43°N, 84.03°W
Report Text: KOSC 291633Z AUTO 25004KT 1 1/2SM -SN BKN037 BKN047 OVC065 M03/M04 A2976 RMK AO2 P0001 T10351044
Loading
Personal Weather Stations






























Interactive Weather Map New forecast layout! Learn more

10-Day Weather Forecast

Advertisements
Track Severe Weather on mobile